createdAt,value
2023-04-25T00:00:11.504Z,5.92
2023-04-25T00:02:38.429Z,5.67
2023-04-25T00:05:06.219Z,5.82
2023-04-25T00:07:35.178Z,5.73
2023-04-25T00:10:04.316Z,5.59
2023-04-25T00:12:31.220Z,5.66
2023-04-25T00:14:58.071Z,5.74
2023-04-25T00:17:28.057Z,5.67
2023-04-25T00:19:57.657Z,5.66
2023-04-25T00:22:24.626Z,5.64
2023-04-25T00:24:54.657Z,5.56
2023-04-25T00:27:21.518Z,5.55
2023-04-25T00:29:48.413Z,5.50
2023-04-25T00:32:15.139Z,5.34
2023-04-25T00:34:41.896Z,5.58
2023-04-25T00:37:08.581Z,5.58
2023-04-25T00:39:35.270Z,5.59
2023-04-25T00:42:03.026Z,5.53
2023-04-25T00:44:31.705Z,5.42
2023-04-25T00:47:01.108Z,5.38
2023-04-25T00:49:27.854Z,5.46
2023-04-25T00:51:55.584Z,5.42
2023-04-25T00:54:22.302Z,5.37
2023-04-25T00:56:48.955Z,5.38
2023-04-25T00:59:16.437Z,5.37
2023-04-25T01:01:45.185Z,5.29
2023-04-25T01:04:12.259Z,5.31
2023-04-25T01:06:39.445Z,5.34
2023-04-25T01:09:06.589Z,5.26
2023-04-25T01:11:33.299Z,5.30
2023-04-25T01:14:03.039Z,5.07
2023-04-25T01:16:30.929Z,5.37
2023-04-25T01:18:57.719Z,5.47
2023-04-25T01:21:27.276Z,5.55
2023-04-25T01:23:55.308Z,5.50
2023-04-25T01:26:22.584Z,5.60
2023-04-25T01:28:49.987Z,5.66
2023-04-25T01:31:18.032Z,5.71
2023-04-25T01:33:45.260Z,5.53
2023-04-25T01:36:12.335Z,5.68
2023-04-25T01:38:42.488Z,5.79
2023-04-25T01:41:09.311Z,5.79
2023-04-25T01:43:36.679Z,5.74
2023-04-25T01:46:03.654Z,5.62
2023-04-25T01:48:30.583Z,5.66
2023-04-25T01:50:57.243Z,5.60
2023-04-25T01:53:24.844Z,5.47
2023-04-25T01:55:51.696Z,5.48
2023-04-25T01:58:18.415Z,5.51
2023-04-25T02:00:45.796Z,5.48
2023-04-25T02:03:12.607Z,5.52
2023-04-25T02:05:40.595Z,5.48
2023-04-25T02:08:13.522Z,5.45
2023-04-25T02:10:42.444Z,5.31
2023-04-25T02:13:09.118Z,5.37
2023-04-25T02:15:38.519Z,5.30
2023-04-25T02:18:07.938Z,5.24
2023-04-25T02:20:35.860Z,5.23
2023-04-25T02:23:02.960Z,5.15
2023-04-25T02:25:29.751Z,5.11
2023-04-25T02:27:56.472Z,5.07
2023-04-25T02:30:25.315Z,5.08
2023-04-25T02:32:54.300Z,5.04
2023-04-25T02:35:23.297Z,4.95
2023-04-25T02:37:52.167Z,5.00
2023-04-25T02:40:21.522Z,4.82
2023-04-25T02:42:48.101Z,4.69
2023-04-25T02:45:17.578Z,4.87
2023-04-25T02:47:46.701Z,4.91
2023-04-25T02:50:16.003Z,4.90
2023-04-25T02:52:45.149Z,4.90
2023-04-25T02:55:12.034Z,4.80
2023-04-25T02:57:38.893Z,4.88
2023-04-25T03:00:06.793Z,4.87
2023-04-25T03:02:33.414Z,5.00
2023-04-25T03:05:00.029Z,4.91
2023-04-25T03:07:26.693Z,5.10
2023-04-25T03:09:56.669Z,5.08
2023-04-25T03:12:26.187Z,5.12
2023-04-25T03:14:55.018Z,4.94
2023-04-25T03:17:26.568Z,5.10
2023-04-25T03:19:53.234Z,5.25
2023-04-25T03:22:20.007Z,5.17
2023-04-25T03:24:46.808Z,5.25
2023-04-25T03:27:13.611Z,5.20
2023-04-25T03:29:41.639Z,5.14
2023-04-25T03:32:10.564Z,5.10
2023-04-25T03:34:37.419Z,5.02
2023-04-25T03:37:04.170Z,4.88
2023-04-25T03:39:31.029Z,4.74
2023-04-25T03:41:57.616Z,4.91
2023-04-25T03:44:25.553Z,4.98
2023-04-25T03:46:52.208Z,5.00
2023-04-25T03:49:21.219Z,4.73
2023-04-25T03:51:47.846Z,4.99
2023-04-25T03:54:14.618Z,4.86
2023-04-25T03:56:41.314Z,4.82
2023-04-25T03:59:10.299Z,4.92
2023-04-25T04:01:39.349Z,4.87
2023-04-25T04:04:06.093Z,4.92
2023-04-25T04:06:33.245Z,4.92
2023-04-25T04:08:59.882Z,4.94
2023-04-25T04:11:27.061Z,4.98
2023-04-25T04:13:53.826Z,4.92
2023-04-25T04:16:20.619Z,5.00
2023-04-25T04:18:49.844Z,5.05
2023-04-25T04:21:19.003Z,5.06
2023-04-25T04:23:45.866Z,5.02
2023-04-25T04:26:14.052Z,5.08
2023-04-25T04:28:40.955Z,5.00
2023-04-25T04:31:08.887Z,5.14
2023-04-25T04:33:35.852Z,5.12
2023-04-25T04:36:03.824Z,5.11
2023-04-25T04:38:33.699Z,5.27
2023-04-25T04:41:00.501Z,5.28
2023-04-25T04:43:27.170Z,5.40
2023-04-25T04:45:57.412Z,5.37
2023-04-25T04:48:24.041Z,5.45
2023-04-25T04:50:50.827Z,5.41
2023-04-25T04:53:17.568Z,5.40
2023-04-25T04:55:44.241Z,5.48
2023-04-25T04:58:17.389Z,5.42
2023-04-25T05:00:46.295Z,5.60
2023-04-25T05:03:13.157Z,5.70
2023-04-25T05:05:42.910Z,5.79
2023-04-25T05:08:09.514Z,5.85
2023-04-25T05:10:36.405Z,5.78
2023-04-25T05:13:05.756Z,5.84
2023-04-25T05:15:34.899Z,5.97
2023-04-25T05:18:02.541Z,5.95
2023-04-25T05:20:31.644Z,6.09
2023-04-25T05:22:58.353Z,6.13
2023-04-25T05:25:24.988Z,6.20
2023-04-25T05:27:53.469Z,6.31
2023-04-25T05:30:22.749Z,6.33
2023-04-25T05:32:49.513Z,6.52
2023-04-25T05:35:16.379Z,6.61
2023-04-25T05:37:47.937Z,6.74
2023-04-25T05:40:14.834Z,6.95
2023-04-25T05:42:41.477Z,7.06
2023-04-25T05:45:10.669Z,6.96
2023-04-25T05:47:37.679Z,7.03
2023-04-25T05:50:04.913Z,7.13
2023-04-25T05:52:31.643Z,10.28
2023-04-25T05:54:58.225Z,13.12
2023-04-25T05:57:26.478Z,15.09
2023-04-25T05:59:53.912Z,15.90
2023-04-25T06:02:22.132Z,14.95
2023-04-25T06:04:53.667Z,13.35
2023-04-25T06:07:23.343Z,12.52
2023-04-25T06:09:52.413Z,11.58
2023-04-25T06:12:19.090Z,12.39
2023-04-25T06:14:45.982Z,14.07
2023-04-25T06:17:12.669Z,16.73
2023-04-25T06:19:39.433Z,17.44
2023-04-25T06:22:08.675Z,18.40
2023-04-25T06:24:35.848Z,19.33
2023-04-25T06:27:02.522Z,20.85
2023-04-25T06:29:29.349Z,21.95
2023-04-25T06:31:56.027Z,22.44
2023-04-25T06:34:22.928Z,22.53
2023-04-25T06:36:49.647Z,22.97
2023-04-25T06:39:16.372Z,22.10
2023-04-25T06:41:43.102Z,19.96
2023-04-25T06:44:09.885Z,20.01
2023-04-25T06:46:39.097Z,21.87
2023-04-25T06:49:05.937Z,22.58
2023-04-25T06:51:32.775Z,21.98
2023-04-25T06:54:01.899Z,23.13
2023-04-25T06:56:30.803Z,23.47
2023-04-25T06:58:57.682Z,24.29
2023-04-25T07:01:27.075Z,22.15
2023-04-25T07:03:56.457Z,19.27
2023-04-25T07:06:26.964Z,18.70
2023-04-25T07:08:53.758Z,19.22
2023-04-25T07:11:22.702Z,19.59
2023-04-25T07:13:49.350Z,19.47
2023-04-25T07:16:18.619Z,20.82
2023-04-25T07:18:45.701Z,21.35
2023-04-25T07:21:12.392Z,21.38
2023-04-25T07:23:41.768Z,22.32
2023-04-25T07:26:08.974Z,20.57
2023-04-25T07:28:35.909Z,20.70
2023-04-25T07:31:02.659Z,21.00
2023-04-25T07:33:29.927Z,22.04
2023-04-25T07:35:56.972Z,23.21
2023-04-25T07:38:23.795Z,22.92
2023-04-25T07:40:50.869Z,20.37
2023-04-25T07:43:18.020Z,19.17
2023-04-25T07:45:45.554Z,17.33
2023-04-25T07:48:12.319Z,15.80
2023-04-25T07:50:39.155Z,14.49
2023-04-25T07:53:05.754Z,13.80
2023-04-25T07:55:32.385Z,13.29
2023-04-25T07:58:01.274Z,12.84
2023-04-25T08:00:30.359Z,13.03
2023-04-25T08:02:59.393Z,12.96
2023-04-25T08:05:26.423Z,12.72
2023-04-25T08:07:53.399Z,12.58
2023-04-25T08:10:20.082Z,12.59
2023-04-25T08:12:46.827Z,12.49
2023-04-25T08:15:14.845Z,12.85
2023-04-25T08:17:45.038Z,12.63
2023-04-25T08:20:12.379Z,12.54
2023-04-25T08:22:38.992Z,12.69
2023-04-25T08:25:06.017Z,12.83
2023-04-25T08:27:32.627Z,13.07
2023-04-25T08:29:59.788Z,12.86
2023-04-25T08:32:28.463Z,12.92
2023-04-25T08:34:56.458Z,12.88
2023-04-25T08:37:25.952Z,13.23
2023-04-25T08:39:54.951Z,13.47
2023-04-25T08:42:22.881Z,14.07
2023-04-25T08:44:51.076Z,16.06
2023-04-25T08:47:22.893Z,16.90
2023-04-25T08:49:53.336Z,17.39
2023-04-25T08:52:24.925Z,17.46
2023-04-25T08:54:55.465Z,17.98
2023-04-25T08:57:22.909Z,18.67
2023-04-25T08:59:53.188Z,18.26
2023-04-25T09:02:21.983Z,18.56
2023-04-25T09:04:49.602Z,17.41
2023-04-25T09:07:22.146Z,14.99
2023-04-25T09:09:48.796Z,13.60
2023-04-25T09:12:15.462Z,12.50
2023-04-25T09:14:44.900Z,11.75
2023-04-25T09:17:11.876Z,11.41
2023-04-25T09:19:42.287Z,11.07
2023-04-25T09:22:12.255Z,10.94
2023-04-25T09:24:41.713Z,11.16
2023-04-25T09:27:19.723Z,12.28
2023-04-25T09:29:48.682Z,13.15
2023-04-25T09:32:23.236Z,13.27
2023-04-25T09:34:55.206Z,13.19
2023-04-25T09:37:23.989Z,14.08
2023-04-25T09:39:55.248Z,14.21
2023-04-25T09:42:27.770Z,14.37
2023-04-25T09:44:56.293Z,14.02
2023-04-25T09:47:27.964Z,13.98
2023-04-25T09:49:56.104Z,14.51
2023-04-25T09:52:26.544Z,14.75
2023-04-25T09:54:53.902Z,14.75
2023-04-25T09:57:27.030Z,14.14
2023-04-25T09:59:55.634Z,14.13
2023-04-25T10:02:24.733Z,13.92
2023-04-25T10:04:55.985Z,14.22
2023-04-25T10:07:27.106Z,14.30
2023-04-25T10:10:02.887Z,14.33
2023-04-25T10:12:33.762Z,14.33
2023-04-25T10:15:01.514Z,14.50
2023-04-25T10:17:31.251Z,14.32
2023-04-25T10:19:58.497Z,14.13
2023-04-25T10:22:32.161Z,14.10
2023-04-25T10:24:59.353Z,14.51
2023-04-25T10:27:29.171Z,15.04
2023-04-25T10:30:16.428Z,15.19
2023-04-25T10:32:46.093Z,14.85
2023-04-25T10:35:14.324Z,14.34
2023-04-25T10:38:05.619Z,13.52
2023-04-25T10:40:33.244Z,12.96
2023-04-25T10:43:38.000Z,12.63
2023-04-25T10:46:20.814Z,12.09
2023-04-25T10:48:51.530Z,11.89
2023-04-25T10:51:26.543Z,11.71
2023-04-25T10:53:56.411Z,11.71
2023-04-25T10:56:35.157Z,11.66
2023-04-25T10:59:16.278Z,11.64
2023-04-25T11:01:52.892Z,11.83
2023-04-25T11:04:24.825Z,11.59
2023-04-25T11:07:36.589Z,11.93
2023-04-25T11:10:07.364Z,11.95
2023-04-25T11:12:36.469Z,11.78
2023-04-25T11:15:10.493Z,11.78
2023-04-25T11:17:37.183Z,12.09
2023-04-25T11:20:08.417Z,12.29
2023-04-25T11:22:38.348Z,12.49
2023-04-25T11:25:09.771Z,12.64
2023-04-25T11:27:53.670Z,12.38
2023-04-25T11:30:23.600Z,12.68
2023-04-25T11:32:51.013Z,12.99
2023-04-25T11:35:17.733Z,13.22
2023-04-25T11:37:45.227Z,13.11
2023-04-25T11:40:12.879Z,13.29
2023-04-25T11:42:47.323Z,13.19
2023-04-25T11:45:15.064Z,13.27
2023-04-25T11:47:41.976Z,12.86
2023-04-25T11:50:09.568Z,12.92
2023-04-25T11:52:49.195Z,13.09
2023-04-25T11:55:16.620Z,13.15
2023-04-25T11:57:44.995Z,13.22
2023-04-25T12:00:20.206Z,13.17
2023-04-25T12:02:49.102Z,13.10
2023-04-25T12:05:30.968Z,12.76
2023-04-25T12:07:59.207Z,12.99
2023-04-25T12:10:26.921Z,13.01
2023-04-25T12:12:53.841Z,12.87
2023-04-25T12:15:26.201Z,12.72
2023-04-25T12:17:54.986Z,12.94
2023-04-25T12:20:32.990Z,12.99
2023-04-25T12:22:59.557Z,12.91
2023-04-25T12:25:42.945Z,12.90
2023-04-25T12:28:24.677Z,12.82
2023-04-25T12:31:05.663Z,12.87
2023-04-25T12:33:34.670Z,12.90
2023-04-25T12:36:09.532Z,12.92
2023-04-25T12:38:45.083Z,12.85
2023-04-25T12:41:13.073Z,12.65
2023-04-25T12:43:42.130Z,12.48
2023-04-25T12:46:09.470Z,12.43
2023-04-25T12:48:36.155Z,12.51
2023-04-25T12:51:02.745Z,12.78
2023-04-25T12:53:29.379Z,12.98
2023-04-25T12:58:22.495Z,13.29
2023-04-25T13:00:49.535Z,13.36
2023-04-25T13:03:19.157Z,13.40
2023-04-25T13:05:45.837Z,13.44
2023-04-25T13:08:12.562Z,13.22
2023-04-25T13:10:43.982Z,13.10
2023-04-25T13:13:10.630Z,12.97
2023-04-25T13:15:37.583Z,12.91
2023-04-25T13:18:06.625Z,12.82
2023-04-25T13:20:36.765Z,13.16
2023-04-25T13:23:03.426Z,12.75
2023-04-25T13:25:30.132Z,12.73
2023-04-25T13:27:56.917Z,12.42
2023-04-25T13:30:23.527Z,12.14
2023-04-25T13:32:50.323Z,12.00
2023-04-25T13:35:18.090Z,12.09
2023-04-25T13:37:47.213Z,12.12
2023-04-25T13:40:16.193Z,11.97
2023-04-25T13:42:46.378Z,11.92
2023-04-25T13:45:13.215Z,11.68
2023-04-25T13:47:42.191Z,11.84
2023-04-25T13:50:09.345Z,11.78
2023-04-25T13:52:36.150Z,11.87
2023-04-25T13:55:04.769Z,11.81
2023-04-25T13:57:39.388Z,12.05
2023-04-25T14:00:09.896Z,12.10
2023-04-25T14:02:39.745Z,12.11
2023-04-25T14:05:07.902Z,12.32
2023-04-25T14:07:37.697Z,12.18
2023-04-25T14:10:05.936Z,12.46
2023-04-25T14:12:33.518Z,12.20
2023-04-25T14:15:05.352Z,12.20
2023-04-25T14:17:34.360Z,12.05
2023-04-25T14:20:01.046Z,11.85
2023-04-25T14:22:30.108Z,11.78
2023-04-25T14:24:59.160Z,11.74
2023-04-25T14:27:28.607Z,11.84
2023-04-25T14:29:55.863Z,11.85
2023-04-25T14:32:22.910Z,11.94
2023-04-25T14:34:49.620Z,11.81
2023-04-25T14:37:16.271Z,11.64
2023-04-25T14:39:46.452Z,11.57
2023-04-25T14:42:13.145Z,11.51
2023-04-25T14:44:39.719Z,11.52
2023-04-25T14:47:06.611Z,11.66
2023-04-25T14:49:35.823Z,11.79
2023-04-25T14:52:02.966Z,11.85
2023-04-25T14:54:29.584Z,11.82
2023-04-25T14:56:58.702Z,11.77
2023-04-25T14:59:29.231Z,11.64
2023-04-25T15:01:59.788Z,11.67
2023-04-25T15:04:27.128Z,11.85
2023-04-25T15:06:56.304Z,11.99
2023-04-25T15:09:24.963Z,12.00
2023-04-25T15:11:52.235Z,11.86
2023-04-25T15:14:19.073Z,11.80
2023-04-25T15:16:47.901Z,11.70
2023-04-25T15:19:14.569Z,11.89
2023-04-25T15:21:44.130Z,12.00
2023-04-25T15:24:12.159Z,11.94
2023-04-25T15:26:41.020Z,12.10
2023-04-25T15:29:07.806Z,11.89
2023-04-25T15:31:36.805Z,11.81
2023-04-25T15:34:03.558Z,11.97
2023-04-25T15:36:31.382Z,11.69
2023-04-25T15:38:58.329Z,11.59
2023-04-25T15:41:26.373Z,11.62
2023-04-25T15:43:55.762Z,11.56
2023-04-25T15:46:25.070Z,11.56
2023-04-25T15:48:52.133Z,11.62
2023-04-25T15:51:18.732Z,11.67
2023-04-25T15:53:47.627Z,11.78
2023-04-25T15:56:14.306Z,11.76
2023-04-25T15:58:40.872Z,11.74
2023-04-25T16:01:07.498Z,11.64
2023-04-25T16:03:36.203Z,11.48
2023-04-25T16:06:06.047Z,11.51
2023-04-25T16:08:35.913Z,11.57
2023-04-25T16:11:03.348Z,11.43
2023-04-25T16:13:30.218Z,11.34
2023-04-25T16:16:02.150Z,11.53
2023-04-25T16:18:31.191Z,11.46
2023-04-25T16:20:57.816Z,11.48
2023-04-25T16:23:24.480Z,11.45
2023-04-25T16:25:54.942Z,11.45
2023-04-25T16:28:26.416Z,11.07
2023-04-25T16:30:53.072Z,11.28
2023-04-25T16:33:19.718Z,11.22
2023-04-25T16:35:46.337Z,10.99
2023-04-25T16:38:14.966Z,10.94
2023-04-25T16:40:41.622Z,10.85
2023-04-25T16:43:08.190Z,10.79
2023-04-25T16:45:34.797Z,10.73
2023-04-25T16:48:01.398Z,10.68
2023-04-25T16:50:27.956Z,10.70
2023-04-25T16:52:54.697Z,10.73
2023-04-25T16:55:23.585Z,10.55
2023-04-25T16:57:52.526Z,10.67
2023-04-25T17:00:19.495Z,10.79
2023-04-25T17:02:46.308Z,10.76
2023-04-25T17:05:13.629Z,10.86
2023-04-25T17:07:42.855Z,10.94
2023-04-25T17:10:09.986Z,10.93
2023-04-25T17:12:39.198Z,10.97
2023-04-25T17:15:06.624Z,10.82
2023-04-25T17:17:33.321Z,10.66
2023-04-25T17:20:02.325Z,10.58
2023-04-25T17:22:29.041Z,10.34
2023-04-25T17:24:55.638Z,10.27
2023-04-25T17:27:24.360Z,10.10
2023-04-25T17:29:51.296Z,10.04
2023-04-25T17:32:20.518Z,9.95
2023-04-25T17:34:48.535Z,9.89
2023-04-25T17:37:17.309Z,9.85
2023-04-25T17:39:44.524Z,9.73
2023-04-25T17:42:15.086Z,9.69
2023-04-25T17:44:43.197Z,9.61
2023-04-25T17:47:12.659Z,9.52
2023-04-25T17:49:39.607Z,9.54
2023-04-25T17:52:07.340Z,9.49
2023-04-25T17:54:35.604Z,9.48
2023-04-25T17:57:02.669Z,9.45
2023-04-25T17:59:32.374Z,9.39
2023-04-25T18:02:01.492Z,9.32
2023-04-25T18:04:31.005Z,9.25
2023-04-25T18:07:00.251Z,9.22
2023-04-25T18:09:27.883Z,9.15
2023-04-25T18:11:54.766Z,9.02
2023-04-25T18:14:22.856Z,9.10
2023-04-25T18:16:55.524Z,9.05
2023-04-25T18:19:23.332Z,8.98
2023-04-25T18:21:54.494Z,8.92
2023-04-25T18:24:22.568Z,8.87
2023-04-25T18:26:49.898Z,8.70
2023-04-25T18:29:31.393Z,8.74
2023-04-25T18:32:00.653Z,8.66
2023-04-25T18:34:29.860Z,8.50
2023-04-25T18:36:59.284Z,8.51
2023-04-25T18:39:27.752Z,8.44
2023-04-25T18:42:01.330Z,7.97
2023-04-25T18:44:33.708Z,8.31
2023-04-25T18:47:00.884Z,8.23
2023-04-25T18:49:27.497Z,8.15
2023-04-25T18:51:57.712Z,8.10
2023-04-25T18:54:24.410Z,8.07
2023-04-25T18:56:55.721Z,7.97
2023-04-25T18:59:22.367Z,7.91
2023-04-25T19:01:52.027Z,7.84
2023-04-25T19:04:18.733Z,7.80
2023-04-25T19:06:46.418Z,7.73
2023-04-25T19:09:15.518Z,7.68
2023-04-25T19:11:42.249Z,7.60
2023-04-25T19:14:08.857Z,7.63
2023-04-25T19:16:38.915Z,7.61
2023-04-25T19:19:09.641Z,7.53
2023-04-25T19:21:41.625Z,7.47
2023-04-25T19:24:08.721Z,7.39
2023-04-25T19:26:35.725Z,7.26
2023-04-25T19:29:10.330Z,7.35
2023-04-25T19:31:38.818Z,7.29
2023-04-25T19:34:06.730Z,7.24
2023-04-25T19:36:33.943Z,7.19
2023-04-25T19:39:04.479Z,7.16
2023-04-25T19:41:35.864Z,7.08
2023-04-25T19:44:07.194Z,7.08
2023-04-25T19:46:40.047Z,7.02
2023-04-25T19:49:07.836Z,6.98
2023-04-25T19:51:37.804Z,6.68
2023-04-25T19:54:06.902Z,6.88
2023-04-25T19:56:35.797Z,6.78
2023-04-25T19:59:02.747Z,6.68
2023-04-25T20:01:31.919Z,6.64
2023-04-25T20:03:58.600Z,6.57
2023-04-25T20:06:25.485Z,6.64
2023-04-25T20:08:57.842Z,6.32
2023-04-25T20:11:24.681Z,6.54
2023-04-25T20:13:53.990Z,6.48
2023-04-25T20:16:23.267Z,6.35
2023-04-25T20:18:55.915Z,5.70
2023-04-25T20:21:25.497Z,6.37
2023-04-25T20:23:52.309Z,6.34
2023-04-25T20:26:19.982Z,6.31
2023-04-25T20:28:48.166Z,6.29
2023-04-25T20:31:14.999Z,6.17
2023-04-25T20:33:43.849Z,6.23
2023-04-25T20:36:10.667Z,6.19
2023-04-25T20:38:37.786Z,6.15
2023-04-25T20:41:07.378Z,6.09
2023-04-25T20:43:37.559Z,6.03
2023-04-25T20:46:04.765Z,6.01
2023-04-25T20:48:31.635Z,6.00
2023-04-25T20:51:00.676Z,5.90
2023-04-25T20:53:35.175Z,5.89
2023-04-25T20:56:02.708Z,5.80
2023-04-25T20:58:32.107Z,5.84
2023-04-25T21:00:59.234Z,5.77
2023-04-25T21:03:26.530Z,5.71
2023-04-25T21:05:53.792Z,5.77
2023-04-25T21:08:20.974Z,5.69
2023-04-25T21:10:47.834Z,5.74
2023-04-25T21:13:17.660Z,5.67
2023-04-25T21:15:47.038Z,5.62
2023-04-25T21:18:17.772Z,5.56
2023-04-25T21:20:46.560Z,5.62
2023-04-25T21:23:15.914Z,5.59
2023-04-25T21:25:43.239Z,5.50
2023-04-25T21:28:12.693Z,5.46
2023-04-25T21:30:39.968Z,5.30
2023-04-25T21:33:07.017Z,5.43
2023-04-25T21:35:34.285Z,5.44
2023-04-25T21:38:01.222Z,5.39
2023-04-25T21:40:30.471Z,5.34
2023-04-25T21:42:57.320Z,5.31
2023-04-25T21:45:24.685Z,5.30
2023-04-25T21:47:51.751Z,5.15
2023-04-25T21:50:19.749Z,5.16
2023-04-25T21:52:49.408Z,5.04
2023-04-25T21:55:17.130Z,5.21
2023-04-25T21:57:43.908Z,5.12
2023-04-25T22:00:21.344Z,5.16
2023-04-25T22:02:48.949Z,5.04
2023-04-25T22:05:22.624Z,5.12
2023-04-25T22:07:51.290Z,5.05
2023-04-25T22:10:20.617Z,4.97
2023-04-25T22:12:50.879Z,4.88
2023-04-25T22:15:24.109Z,4.97
2023-04-25T22:17:52.529Z,4.89
2023-04-25T22:20:23.318Z,4.49
2023-04-25T22:22:53.586Z,4.82
2023-04-25T22:25:21.441Z,4.81
2023-04-25T22:27:51.559Z,4.72
2023-04-25T22:30:21.754Z,4.58
2023-04-25T22:32:48.690Z,4.76
2023-04-25T22:35:15.633Z,4.73
2023-04-25T22:37:42.499Z,4.72
2023-04-25T22:40:12.332Z,4.67
2023-04-25T22:42:43.330Z,4.61
2023-04-25T22:45:11.266Z,4.59
2023-04-25T22:47:41.087Z,4.60
2023-04-25T22:50:13.071Z,4.64
2023-04-25T22:52:42.112Z,4.53
2023-04-25T22:55:10.609Z,4.28
2023-04-25T22:57:40.213Z,4.60
2023-04-25T23:00:16.183Z,4.58
2023-04-25T23:02:47.376Z,4.57
2023-04-25T23:05:15.412Z,4.49
2023-04-25T23:07:44.198Z,4.50
2023-04-25T23:10:12.236Z,4.38
2023-04-25T23:12:40.357Z,4.39
2023-04-25T23:15:08.412Z,4.42
2023-04-25T23:17:38.240Z,4.19
2023-04-25T23:20:07.976Z,4.15
2023-04-25T23:22:35.198Z,4.26
2023-04-25T23:25:02.665Z,4.09
2023-04-25T23:27:29.600Z,4.20
2023-04-25T23:29:56.943Z,4.22
2023-04-25T23:32:25.806Z,4.19
2023-04-25T23:34:52.806Z,4.23
2023-04-25T23:37:19.747Z,4.22
2023-04-25T23:39:52.670Z,4.19
2023-04-25T23:42:19.504Z,4.01
2023-04-25T23:44:48.452Z,4.14
2023-04-25T23:47:17.848Z,4.03
2023-04-25T23:49:45.222Z,4.09
2023-04-25T23:52:12.612Z,4.07
2023-04-25T23:54:39.502Z,3.84
2023-04-25T23:57:06.332Z,4.00
2023-04-25T23:59:33.506Z,3.75
